createdAt,value
2023-02-28T00:04:18.889Z,22.26
2023-02-28T00:09:20.263Z,22.25
2023-02-28T00:14:21.638Z,22.29
2023-02-28T00:19:23.010Z,22.32
2023-02-28T00:24:24.455Z,22.28
2023-02-28T00:29:25.831Z,22.21
2023-02-28T00:34:27.210Z,22.28
2023-02-28T00:39:28.619Z,22.30
2023-02-28T00:44:30.601Z,22.31
2023-02-28T00:49:32.015Z,22.23
2023-02-28T00:54:33.400Z,22.25
2023-02-28T00:59:34.819Z,22.30
2023-02-28T01:04:36.234Z,22.32
2023-02-28T01:09:37.650Z,22.25
2023-02-28T01:14:39.057Z,22.24
2023-02-28T01:19:40.424Z,22.29
2023-02-28T01:24:41.815Z,22.30
2023-02-28T01:29:43.197Z,22.27
2023-02-28T01:34:44.820Z,22.22
2023-02-28T01:39:46.246Z,22.27
2023-02-28T01:45:02.330Z,22.30
2023-02-28T01:50:06.437Z,22.29
2023-02-28T01:55:08.213Z,22.17
2023-02-28T02:00:17.352Z,22.24
2023-02-28T02:05:23.417Z,22.31
2023-02-28T02:10:32.192Z,22.30
2023-02-28T02:15:40.647Z,22.27
2023-02-28T02:21:16.156Z,22.25
2023-02-28T02:26:31.498Z,22.28
2023-02-28T02:31:57.302Z,22.29
2023-02-28T02:37:29.752Z,22.23
2023-02-28T02:42:45.244Z,22.20
2023-02-28T02:47:46.610Z,22.27
2023-02-28T02:52:51.823Z,22.29
2023-02-28T02:57:55.891Z,22.25
2023-02-28T03:02:57.297Z,22.23
2023-02-28T03:07:58.666Z,22.27
2023-02-28T03:13:28.672Z,22.29
2023-02-28T03:18:44.308Z,22.24
2023-02-28T03:23:57.773Z,22.21
2023-02-28T03:29:18.121Z,22.26
2023-02-28T03:34:50.270Z,22.29
2023-02-28T03:39:56.415Z,22.22
2023-02-28T03:45:03.179Z,22.22
2023-02-28T03:50:08.690Z,22.27
2023-02-28T03:55:11.148Z,22.30
2023-02-28T04:00:21.062Z,22.27
2023-02-28T04:05:22.528Z,22.15
2023-02-28T04:10:24.257Z,22.22
2023-02-28T04:15:25.729Z,22.29
2023-02-28T04:20:27.104Z,22.28
2023-02-28T04:25:28.467Z,22.24
2023-02-28T04:30:30.537Z,22.22
2023-02-28T04:35:31.963Z,22.27
2023-02-28T04:40:33.402Z,22.30
2023-02-28T04:45:35.769Z,22.23
2023-02-28T04:50:37.158Z,22.17
2023-02-28T04:55:40.967Z,22.23
2023-02-28T05:00:42.367Z,22.28
2023-02-28T05:05:43.886Z,22.25
2023-02-28T05:10:45.256Z,22.21
2023-02-28T05:15:46.645Z,22.23
2023-02-28T05:20:48.022Z,22.28
2023-02-28T05:25:49.398Z,22.26
2023-02-28T05:30:50.767Z,22.15
2023-02-28T05:35:52.181Z,22.25
2023-02-28T05:40:54.307Z,22.30
2023-02-28T05:45:55.738Z,22.34
2023-02-28T05:50:58.376Z,22.24
2023-02-28T05:55:59.825Z,22.27
2023-02-28T06:01:02.183Z,22.32
2023-02-28T06:06:03.882Z,22.35
2023-02-28T06:11:05.382Z,22.25
2023-02-28T06:16:06.863Z,22.28
2023-02-28T06:21:09.706Z,22.35
2023-02-28T06:26:11.619Z,22.33
2023-02-28T06:31:14.651Z,22.33
2023-02-28T06:36:16.335Z,22.22
2023-02-28T06:41:17.998Z,22.28
2023-02-28T06:46:19.510Z,22.33
2023-02-28T06:51:25.138Z,22.32
2023-02-28T06:56:26.502Z,22.35
2023-02-28T07:01:29.123Z,22.45
2023-02-28T07:06:30.822Z,22.58
2023-02-28T07:11:32.711Z,22.67
2023-02-28T07:16:34.363Z,22.66
2023-02-28T07:21:35.792Z,22.64
2023-02-28T07:26:37.170Z,22.80
2023-02-28T07:31:38.668Z,22.88
2023-02-28T07:36:40.151Z,22.90
2023-02-28T07:41:44.298Z,22.85
2023-02-28T07:46:45.777Z,22.91
2023-02-28T07:51:47.172Z,22.98
2023-02-28T07:56:48.560Z,22.98
2023-02-28T08:01:51.214Z,22.94
2023-02-28T08:06:57.221Z,22.84
2023-02-28T08:11:58.821Z,22.98
2023-02-28T08:17:00.261Z,23.00
2023-02-28T08:22:01.674Z,23.03
2023-02-28T08:27:03.085Z,23.02
2023-02-28T08:32:05.564Z,23.01
2023-02-28T08:37:07.135Z,23.06
2023-02-28T08:42:08.507Z,22.98
2023-02-28T08:47:09.916Z,22.95
2023-02-28T08:52:11.553Z,22.93
2023-02-28T08:57:12.938Z,23.00
2023-02-28T09:02:15.173Z,23.13
2023-02-28T09:07:16.633Z,23.06
2023-02-28T09:12:18.000Z,22.95
2023-02-28T09:17:19.525Z,22.82
2023-02-28T09:22:21.003Z,22.96
2023-02-28T09:27:22.376Z,22.98
2023-02-28T09:32:23.832Z,22.86
2023-02-28T09:37:25.811Z,22.77
2023-02-28T09:42:32.674Z,22.84
2023-02-28T09:47:35.880Z,22.81
2023-02-28T09:52:37.267Z,22.88
2023-02-28T09:57:40.215Z,22.82
2023-02-28T10:02:59.611Z,22.80
2023-02-28T10:08:19.135Z,22.93
2023-02-28T10:13:51.005Z,22.96
2023-02-28T10:19:00.502Z,22.92
2023-02-28T10:29:19.186Z,22.96
2023-02-28T10:34:20.554Z,23.00
2023-02-28T10:39:45.021Z,23.04
2023-02-28T10:44:46.414Z,22.93
2023-02-28T10:49:48.876Z,22.99
2023-02-28T10:54:50.260Z,23.13
2023-02-28T10:59:52.643Z,23.14
2023-02-28T11:04:54.064Z,23.08
2023-02-28T11:09:56.407Z,23.00
2023-02-28T11:15:06.987Z,22.99
2023-02-28T11:20:11.236Z,23.06
2023-02-28T11:25:25.907Z,23.01
2023-02-28T11:30:47.187Z,22.84
2023-02-28T11:35:48.905Z,22.80
2023-02-28T11:41:00.619Z,22.90
2023-02-28T11:46:06.236Z,22.96
2023-02-28T11:51:16.410Z,22.92
2023-02-28T11:56:27.233Z,22.88
2023-02-28T12:01:35.508Z,22.93
2023-02-28T12:06:46.016Z,23.02
2023-02-28T12:11:53.247Z,22.99
2023-02-28T12:17:22.105Z,22.80
2023-02-28T12:22:29.753Z,22.78
2023-02-28T12:27:32.439Z,22.83
2023-02-28T12:32:39.391Z,22.83
2023-02-28T12:37:59.156Z,22.76
2023-02-28T12:43:05.576Z,22.75
2023-02-28T12:48:08.684Z,22.72
2023-02-28T12:53:12.923Z,22.76
2023-02-28T12:58:39.115Z,22.75
2023-02-28T13:04:04.519Z,22.75
2023-02-28T13:09:09.525Z,22.79
2023-02-28T13:14:35.167Z,22.75
2023-02-28T13:19:36.998Z,22.80
2023-02-28T13:24:38.199Z,22.84
2023-02-28T13:29:42.845Z,22.83
2023-02-28T13:34:50.076Z,22.91
2023-02-28T13:40:10.726Z,22.99
2023-02-28T13:45:11.950Z,23.05
2023-02-28T13:50:33.195Z,23.00
2023-02-28T13:55:54.689Z,22.89
2023-02-28T14:01:11.502Z,23.06
2023-02-28T14:06:45.709Z,23.14
2023-02-28T14:11:47.142Z,23.13
2023-02-28T14:16:48.626Z,23.05
2023-02-28T14:22:05.149Z,23.07
2023-02-28T14:27:35.760Z,23.14
2023-02-28T14:33:05.228Z,23.13
2023-02-28T14:38:08.168Z,23.15
2023-02-28T14:43:26.607Z,22.96
2023-02-28T14:48:28.031Z,23.07
2023-02-28T14:53:30.832Z,23.01
2023-02-28T14:58:33.451Z,22.84
2023-02-28T15:03:36.399Z,22.62
2023-02-28T15:08:37.788Z,22.53
2023-02-28T15:13:47.312Z,22.63
2023-02-28T15:18:59.992Z,22.58
2023-02-28T15:24:07.930Z,22.46
2023-02-28T15:29:13.796Z,22.32
2023-02-28T15:34:43.466Z,22.43
2023-02-28T15:39:45.567Z,22.57
2023-02-28T15:44:46.974Z,22.56
2023-02-28T15:49:48.986Z,22.45
2023-02-28T15:54:50.372Z,22.43
2023-02-28T15:59:53.856Z,22.48
2023-02-28T16:04:59.745Z,22.58
2023-02-28T16:10:01.236Z,22.53
2023-02-28T16:15:06.693Z,22.51
2023-02-28T16:20:19.639Z,22.49
2023-02-28T16:25:23.922Z,22.58
2023-02-28T16:30:26.144Z,22.59
2023-02-28T16:35:27.600Z,22.52
2023-02-28T16:40:29.849Z,22.42
2023-02-28T16:45:31.247Z,22.49
2023-02-28T16:50:33.538Z,22.58
2023-02-28T16:55:35.201Z,22.55
2023-02-28T17:00:36.566Z,22.44
2023-02-28T17:05:38.744Z,22.40
2023-02-28T17:10:40.122Z,22.45
2023-02-28T17:15:41.667Z,22.50
2023-02-28T17:20:43.242Z,22.52
2023-02-28T17:25:56.411Z,22.41
2023-02-28T17:30:58.625Z,22.40
2023-02-28T17:36:00.074Z,22.46
2023-02-28T17:41:01.495Z,22.51
2023-02-28T17:46:02.873Z,22.42
2023-02-28T17:51:04.290Z,22.37
2023-02-28T17:56:06.262Z,22.45
2023-02-28T18:01:07.668Z,22.50
2023-02-28T18:06:19.130Z,22.45
2023-02-28T18:11:21.200Z,22.35
2023-02-28T18:16:22.894Z,22.44
2023-02-28T18:21:24.353Z,22.51
2023-02-28T18:26:25.725Z,22.51
2023-02-28T18:31:27.155Z,22.42
2023-02-28T18:36:28.973Z,22.40
2023-02-28T18:41:30.612Z,22.51
2023-02-28T18:46:32.285Z,22.51
2023-02-28T18:51:33.723Z,22.42
2023-02-28T18:56:35.100Z,22.34
2023-02-28T19:01:36.508Z,22.45
2023-02-28T19:06:39.088Z,22.49
2023-02-28T19:11:40.584Z,22.44
2023-02-28T19:16:42.072Z,22.39
2023-02-28T19:21:43.526Z,22.43
2023-02-28T19:26:44.940Z,22.50
2023-02-28T19:31:46.436Z,22.43
2023-02-28T19:36:47.845Z,22.38
2023-02-28T19:41:49.212Z,22.38
2023-02-28T19:46:50.775Z,22.43
2023-02-28T19:51:52.472Z,22.43
2023-02-28T19:56:54.505Z,22.33
2023-02-28T20:01:56.262Z,22.34
2023-02-28T20:06:58.058Z,22.41
2023-02-28T20:11:59.504Z,22.44
2023-02-28T20:17:00.961Z,22.38
2023-02-28T20:22:02.908Z,22.29
2023-02-28T20:27:04.399Z,22.42
2023-02-28T20:32:08.074Z,22.45
2023-02-28T20:37:09.487Z,22.39
2023-02-28T20:42:10.860Z,22.34
2023-02-28T20:47:12.253Z,22.36
2023-02-28T20:52:13.651Z,22.43
2023-02-28T20:57:15.081Z,22.45
2023-02-28T21:02:16.742Z,22.28
2023-02-28T21:07:18.163Z,22.35
2023-02-28T21:12:19.547Z,22.39
2023-02-28T21:17:20.936Z,22.43
2023-02-28T21:22:22.345Z,22.34
2023-02-28T21:27:23.763Z,22.33
2023-02-28T21:32:25.183Z,22.39
2023-02-28T21:37:26.591Z,22.42
2023-02-28T21:42:27.987Z,22.39
2023-02-28T21:47:29.966Z,22.28
2023-02-28T21:52:31.331Z,22.37
2023-02-28T21:57:35.768Z,22.42
2023-02-28T22:02:38.041Z,22.35
2023-02-28T22:07:41.911Z,22.30
2023-02-28T22:12:43.288Z,22.35
2023-02-28T22:17:45.704Z,22.43
2023-02-28T22:22:47.108Z,22.40
2023-02-28T22:27:48.504Z,22.28
2023-02-28T22:32:49.866Z,22.30
2023-02-28T22:37:51.236Z,22.39
2023-02-28T22:42:52.608Z,22.43
2023-02-28T22:47:54.219Z,22.30
2023-02-28T22:52:55.997Z,22.25
2023-02-28T22:57:57.374Z,22.34
2023-02-28T23:02:58.815Z,22.41
2023-02-28T23:08:00.892Z,22.31
2023-02-28T23:13:02.259Z,22.29
2023-02-28T23:18:03.651Z,22.33
2023-02-28T23:23:05.098Z,22.39
2023-02-28T23:28:07.497Z,22.39
2023-02-28T23:33:08.887Z,22.32
2023-02-28T23:38:10.273Z,22.31
2023-02-28T23:43:12.211Z,22.38
2023-02-28T23:48:13.627Z,22.41
2023-02-28T23:53:14.995Z,22.32
2023-02-28T23:58:16.377Z,22.34
